createdAt,value
2022-11-17T00:02:39.012Z,84.97
2022-11-17T00:07:43.128Z,85.48
2022-11-17T00:12:45.514Z,85.96
2022-11-17T00:17:47.930Z,85.95
2022-11-17T00:22:51.418Z,86.23
2022-11-17T00:27:53.659Z,86.13
2022-11-17T00:33:01.172Z,86.74
2022-11-17T00:38:04.629Z,86.78
2022-11-17T00:43:06.778Z,87.45
2022-11-17T00:48:08.730Z,86.85
2022-11-17T00:53:12.161Z,87.31
2022-11-17T00:58:13.993Z,86.72
2022-11-17T01:03:16.109Z,87.43
2022-11-17T01:08:19.799Z,87.26
2022-11-17T01:13:22.582Z,87.33
2022-11-17T01:18:24.901Z,87.35
2022-11-17T01:23:28.567Z,87.35
2022-11-17T01:28:30.990Z,87.71
2022-11-17T01:33:34.296Z,87.83
2022-11-17T01:38:38.177Z,87.96
2022-11-17T01:43:43.637Z,87.64
2022-11-17T01:48:46.578Z,87.49
2022-11-17T01:53:51.212Z,88.22
2022-11-17T01:58:58.746Z,87.21
2022-11-17T02:04:01.747Z,87.65
2022-11-17T02:09:05.005Z,88.09
2022-11-17T02:14:08.642Z,87.85
2022-11-17T02:19:15.457Z,87.84
2022-11-17T02:24:32.735Z,87.94
2022-11-17T02:29:42.319Z,87.24
2022-11-17T02:34:50.795Z,87.56
2022-11-17T02:39:59.460Z,86.87
2022-11-17T02:45:05.828Z,86.21
2022-11-17T02:50:11.003Z,86.56
2022-11-17T02:55:14.350Z,85.65
2022-11-17T03:00:20.378Z,86.05
2022-11-17T03:05:29.952Z,85.54
2022-11-17T03:10:45.616Z,85.97
2022-11-17T03:15:55.079Z,86.08
2022-11-17T03:21:06.525Z,86.03
2022-11-17T03:26:12.713Z,85.80
2022-11-17T03:31:18.344Z,85.61
2022-11-17T03:36:27.409Z,85.49
2022-11-17T03:41:33.305Z,85.58
2022-11-17T03:46:39.261Z,85.66
2022-11-17T03:51:41.287Z,85.34
2022-11-17T03:56:52.079Z,86.04
2022-11-17T04:01:56.168Z,86.00
2022-11-17T04:06:58.449Z,86.33
2022-11-17T04:12:00.614Z,86.15
2022-11-17T04:17:04.337Z,86.09
2022-11-17T04:22:06.473Z,86.42
2022-11-17T04:27:08.676Z,86.29
2022-11-17T04:32:11.806Z,86.20
2022-11-17T04:37:13.972Z,86.81
2022-11-17T04:42:15.923Z,87.20
2022-11-17T04:47:19.501Z,87.33
2022-11-17T04:52:25.538Z,86.86
2022-11-17T04:57:32.308Z,87.11
2022-11-17T05:02:35.400Z,86.97
2022-11-17T05:07:37.284Z,87.44
2022-11-17T05:12:39.363Z,87.50
2022-11-17T05:17:43.091Z,87.55
2022-11-17T05:22:44.784Z,87.70
2022-11-17T05:27:49.741Z,87.60
2022-11-17T05:32:54.252Z,87.71
2022-11-17T05:37:56.078Z,88.11
2022-11-17T05:42:57.836Z,87.89
2022-11-17T05:48:00.947Z,87.75
2022-11-17T05:53:04.047Z,87.51
2022-11-17T05:58:12.876Z,87.75
2022-11-17T06:03:20.267Z,88.03
2022-11-17T06:08:22.809Z,87.65
2022-11-17T06:13:24.631Z,87.27
2022-11-17T06:18:32.219Z,87.56
2022-11-17T06:23:36.460Z,86.84
2022-11-17T06:28:41.075Z,87.34
2022-11-17T06:33:45.397Z,87.02
2022-11-17T06:38:47.173Z,86.55
2022-11-17T06:43:48.955Z,86.51
2022-11-17T06:48:54.564Z,85.66
2022-11-17T06:53:56.636Z,86.10
2022-11-17T06:58:58.389Z,85.97
2022-11-17T07:04:01.561Z,85.82
2022-11-17T07:09:03.961Z,85.72
2022-11-17T07:14:06.069Z,85.50
2022-11-17T07:19:10.115Z,85.15
2022-11-17T07:24:12.405Z,85.14
2022-11-17T07:29:14.065Z,85.06
2022-11-17T07:34:17.487Z,84.76
2022-11-17T07:39:21.631Z,84.94
2022-11-17T07:44:24.257Z,84.60
2022-11-17T07:49:27.823Z,84.28
2022-11-17T07:54:29.634Z,84.10
2022-11-17T07:59:31.675Z,83.97
2022-11-17T08:04:35.179Z,83.61
2022-11-17T08:09:37.372Z,83.10
2022-11-17T08:14:39.101Z,83.07
2022-11-17T08:19:42.797Z,82.99
2022-11-17T08:24:44.959Z,83.56
2022-11-17T08:29:46.645Z,82.95
2022-11-17T08:34:50.185Z,83.57
2022-11-17T08:39:52.037Z,83.50
2022-11-17T08:44:54.098Z,83.79
2022-11-17T08:49:57.247Z,83.94
2022-11-17T08:54:59.488Z,83.95
2022-11-17T09:00:01.990Z,83.68
2022-11-17T09:05:07.093Z,83.37
2022-11-17T09:10:09.963Z,83.71
2022-11-17T09:15:11.681Z,83.70
2022-11-17T09:20:16.576Z,83.74
2022-11-17T09:25:18.927Z,83.87
2022-11-17T09:30:21.167Z,83.88
2022-11-17T09:35:25.498Z,83.79
2022-11-17T09:40:31.868Z,83.77
2022-11-17T09:45:39.889Z,84.32
2022-11-17T09:50:45.116Z,84.20
2022-11-17T09:55:52.077Z,84.16
2022-11-17T10:00:55.844Z,84.52
2022-11-17T10:06:01.732Z,83.95
2022-11-17T10:11:09.861Z,83.91
2022-11-17T10:16:14.195Z,83.69
2022-11-17T10:21:18.091Z,83.55
2022-11-17T10:26:19.821Z,83.80
2022-11-17T10:31:22.282Z,83.27
2022-11-17T10:36:28.764Z,83.44
2022-11-17T10:41:39.071Z,83.50
2022-11-17T10:46:58.919Z,83.71
2022-11-17T10:52:13.990Z,83.84
2022-11-17T10:57:19.914Z,83.51
2022-11-17T11:02:29.220Z,83.66
2022-11-17T11:07:32.345Z,83.33
2022-11-17T11:12:43.165Z,82.92
2022-11-17T11:17:45.277Z,82.83
2022-11-17T11:22:57.583Z,81.98
2022-11-17T11:28:11.984Z,81.91
2022-11-17T11:33:28.361Z,81.44
2022-11-17T11:38:44.988Z,81.42
2022-11-17T11:43:59.046Z,81.46
2022-11-17T11:49:12.349Z,81.16
2022-11-17T11:54:23.789Z,81.45
2022-11-17T11:59:36.969Z,81.62
2022-11-17T12:04:44.096Z,81.87
2022-11-17T12:09:58.894Z,81.65
2022-11-17T12:15:29.968Z,81.54
2022-11-17T12:20:56.966Z,81.10
2022-11-17T12:26:01.998Z,81.06
2022-11-17T12:31:10.126Z,81.17
2022-11-17T12:36:30.166Z,81.30
2022-11-17T12:42:06.603Z,81.27
2022-11-17T12:47:13.738Z,80.82
2022-11-17T12:52:24.859Z,80.66
2022-11-17T12:57:32.565Z,80.73
2022-11-17T13:02:59.368Z,80.29
2022-11-17T13:08:23.295Z,80.50
2022-11-17T13:13:26.677Z,80.69
2022-11-17T13:18:32.469Z,80.90
2022-11-17T13:23:34.570Z,80.73
2022-11-17T13:28:38.090Z,80.85
2022-11-17T13:33:40.646Z,80.85
2022-11-17T13:38:48.278Z,80.44
2022-11-17T13:43:52.746Z,80.83
2022-11-17T13:48:54.479Z,80.56
2022-11-17T13:54:02.289Z,80.63
2022-11-17T13:59:22.033Z,81.13
2022-11-17T14:04:24.725Z,81.44
2022-11-17T14:09:28.071Z,82.63
2022-11-17T14:14:36.603Z,83.14
2022-11-17T14:19:38.946Z,84.11
2022-11-17T14:24:41.148Z,86.45
2022-11-17T14:29:44.839Z,87.04
2022-11-17T14:34:47.105Z,88.17
2022-11-17T14:39:49.230Z,88.22
2022-11-17T14:44:52.642Z,88.66
2022-11-17T14:49:54.862Z,89.23
2022-11-17T14:54:57.059Z,90.31
2022-11-17T15:00:01.791Z,90.88
2022-11-17T15:05:04.621Z,91.74
2022-11-17T15:10:07.616Z,91.80
2022-11-17T15:15:11.970Z,91.63
2022-11-17T15:20:14.201Z,92.30
2022-11-17T15:25:16.603Z,92.93
2022-11-17T15:30:20.830Z,93.28
2022-11-17T15:35:22.646Z,93.54
2022-11-17T15:40:24.690Z,94.53
2022-11-17T15:45:28.030Z,94.66
2022-11-17T15:50:30.245Z,94.30
2022-11-17T15:55:33.881Z,94.13
2022-11-17T16:00:37.107Z,94.51
2022-11-17T16:05:38.838Z,95.60
2022-11-17T16:10:40.958Z,95.43
2022-11-17T16:15:47.693Z,96.00
2022-11-17T16:20:50.283Z,96.01
2022-11-17T16:25:52.137Z,95.84
2022-11-17T16:30:55.443Z,96.29
2022-11-17T16:36:04.566Z,96.41
2022-11-17T16:41:06.506Z,96.97
2022-11-17T16:46:15.613Z,96.61
2022-11-17T16:51:18.986Z,96.66
2022-11-17T16:56:20.820Z,96.89
2022-11-17T17:01:26.050Z,96.96
2022-11-17T17:06:28.436Z,96.37
2022-11-17T17:11:31.201Z,96.37
2022-11-17T17:16:36.669Z,96.84
2022-11-17T17:21:39.316Z,96.55
2022-11-17T17:26:41.675Z,96.73
2022-11-17T17:31:45.171Z,96.63
2022-11-17T17:36:47.278Z,96.80
2022-11-17T17:41:49.080Z,97.49
2022-11-17T17:46:52.200Z,97.33
2022-11-17T17:51:53.939Z,98.01
2022-11-17T17:56:55.912Z,97.98
2022-11-17T18:01:58.998Z,98.39
2022-11-17T18:07:00.788Z,98.68
2022-11-17T18:12:02.543Z,98.83
2022-11-17T18:17:05.788Z,98.91
2022-11-17T18:22:07.544Z,98.80
2022-11-17T18:27:09.619Z,99.02
2022-11-17T18:32:15.844Z,99.34
2022-11-17T18:37:17.595Z,99.69
2022-11-17T18:42:19.363Z,99.32
2022-11-17T18:47:22.493Z,99.32
2022-11-17T18:52:28.583Z,98.91
2022-11-17T18:57:34.332Z,98.92
2022-11-17T19:02:37.382Z,99.14
2022-11-17T19:07:39.166Z,99.29
2022-11-17T19:12:41.393Z,99.27
2022-11-17T19:17:44.642Z,99.59
2022-11-17T19:22:46.334Z,99.06
2022-11-17T19:27:48.122Z,99.49
2022-11-17T19:32:51.985Z,99.18
2022-11-17T19:37:55.950Z,98.99
2022-11-17T19:42:57.839Z,98.80
2022-11-17T19:48:01.828Z,98.88
2022-11-17T19:53:03.938Z,99.29
2022-11-17T19:58:06.089Z,99.44
2022-11-17T20:03:09.868Z,99.38
2022-11-17T20:08:12.542Z,99.61
2022-11-17T20:13:14.800Z,99.35
2022-11-17T20:18:18.511Z,99.25
2022-11-17T20:23:22.074Z,99.50
2022-11-17T20:28:24.827Z,99.63
2022-11-17T20:33:30.032Z,99.44
2022-11-17T20:38:32.575Z,99.56
2022-11-17T20:43:35.318Z,100.00
2022-11-17T20:48:38.476Z,100.00
2022-11-17T20:53:41.113Z,100.00
2022-11-17T20:58:43.543Z,99.94
2022-11-17T21:03:47.696Z,100.00
2022-11-17T21:08:49.735Z,99.90
2022-11-17T21:13:51.592Z,99.33
2022-11-17T21:18:54.797Z,99.96
2022-11-17T21:23:56.671Z,100.00
2022-11-17T21:29:04.818Z,99.92
2022-11-17T21:34:15.213Z,99.56
2022-11-17T21:39:17.377Z,99.84
2022-11-17T21:44:20.076Z,99.53
2022-11-17T21:49:23.217Z,99.33
2022-11-17T21:54:25.133Z,99.35
2022-11-17T21:59:26.848Z,98.95
2022-11-17T22:04:30.016Z,98.91
2022-11-17T22:09:31.685Z,98.72
2022-11-17T22:14:33.798Z,98.45
2022-11-17T22:19:37.283Z,98.43
2022-11-17T22:24:39.836Z,98.23
2022-11-17T22:29:42.146Z,98.09
2022-11-17T22:34:45.863Z,97.65
2022-11-17T22:39:48.001Z,97.32
2022-11-17T22:44:50.130Z,97.21
2022-11-17T22:49:53.569Z,97.52
2022-11-17T22:54:55.707Z,97.17
2022-11-17T22:59:57.763Z,96.87
2022-11-17T23:05:01.254Z,97.06
2022-11-17T23:10:03.511Z,97.40
2022-11-17T23:15:07.001Z,97.20
2022-11-17T23:20:12.117Z,97.83
2022-11-17T23:25:14.291Z,97.85
2022-11-17T23:30:17.319Z,97.87
2022-11-17T23:35:21.093Z,98.14
2022-11-17T23:40:22.856Z,98.34
2022-11-17T23:45:24.946Z,98.50
2022-11-17T23:50:27.977Z,98.27
2022-11-17T23:55:29.722Z,97.36
